Time;durP1;ratioP1;P1;durP2;ratioP2;P2;SDS_P1;SDS_P2;PMS_P1;PMS_P2;Temp;Humidity;BMP_temperature;BMP_pressure;BME280_temperature;BME280_humidity;BME280_pressure;Samples;Min_cycle;Max_cycle;Signal;HPM_P1;HPM_P2
2023/03/20 00:01:20;;;;;;;25.67;18.70;;;9.80;99.90;;;;;;4906420;29;20462;-73
2023/03/20 00:03:46;;;;;;;29.80;21.23;;;9.70;99.90;;;;;;4900367;29;20431;-72
2023/03/20 00:06:17;;;;;;;28.23;21.43;;;9.80;99.90;;;;;;4902334;29;20463;-73
2023/03/20 00:08:46;;;;;;;27.87;20.17;;;9.80;99.90;;;;;;4902541;29;20407;-73
2023/03/20 00:11:25;;;;;;;26.03;17.67;;;9.70;99.90;;;;;;4902854;29;20583;-73
2023/03/20 00:13:55;;;;;;;25.90;18.60;;;9.70;99.90;;;;;;4906815;29;20870;-73
2023/03/20 00:16:23;;;;;;;25.50;19.07;;;9.70;99.90;;;;;;4908065;29;20723;-73
2023/03/20 00:18:49;;;;;;;22.60;17.17;;;9.70;99.90;;;;;;4908689;29;20410;-74
2023/03/20 00:21:17;;;;;;;25.73;20.57;;;9.70;99.90;;;;;;4907244;29;20791;-73
2023/03/20 00:23:42;;;;;;;25.23;18.27;;;9.70;99.90;;;;;;4906398;29;20466;-73
2023/03/20 00:26:13;;;;;;;20.87;16.33;;;9.70;99.90;;;;;;4903831;29;20495;-73
2023/03/20 00:28:58;;;;;;;20.87;15.27;;;9.70;99.90;;;;;;4904240;29;20603;-75
2023/03/20 00:31:27;;;;;;;19.23;14.00;;;9.60;99.90;;;;;;4903378;29;20492;-73
2023/03/20 00:33:56;;;;;;;16.90;13.50;;;9.60;99.90;;;;;;4903857;29;20664;-73
2023/03/20 00:36:22;;;;;;;25.47;19.00;;;9.60;99.90;;;;;;4906910;29;20514;-74
2023/03/20 00:38:47;;;;;;;22.33;16.83;;;9.60;99.90;;;;;;4906098;29;20847;-73
2023/03/20 00:41:32;;;;;;;25.20;18.60;;;9.60;99.90;;;;;;4901135;29;20539;-74
2023/03/20 00:44:32;;;;;;;23.07;18.13;;;9.60;99.90;;;;;;4885836;29;20237;-73
2023/03/20 00:47:02;;;;;;;28.40;20.80;;;9.60;99.90;;;;;;4901458;29;20571;-74
2023/03/20 00:49:33;;;;;;;25.93;18.27;;;9.50;99.90;;;;;;4901307;29;20454;-73
2023/03/20 00:52:00;;;;;;;25.10;18.70;;;9.50;99.90;;;;;;4900901;29;20447;-72
2023/03/20 00:54:26;;;;;;;27.23;19.47;;;9.60;99.90;;;;;;4901040;29;20443;-73
2023/03/20 00:57:01;;;;;;;27.53;20.30;;;9.50;99.90;;;;;;4885070;29;20433;-73
2023/03/20 00:59:34;;;;;;;27.13;19.93;;;9.50;99.90;;;;;;4884696;29;20455;-72
2023/03/20 01:02:01;;;;;;;29.30;21.20;;;9.50;99.90;;;;;;4901079;29;20416;-73
2023/03/20 01:04:39;;;;;;;26.40;19.20;;;9.60;99.90;;;;;;4887241;29;20735;-73
2023/03/20 01:07:09;;;;;;;25.73;19.00;;;9.50;99.90;;;;;;4901164;29;20477;-72
2023/03/20 01:09:35;;;;;;;26.80;18.93;;;9.50;99.90;;;;;;4900995;29;20771;-71
2023/03/20 01:12:02;;;;;;;30.50;21.60;;;9.40;99.90;;;;;;4902001;29;20506;-73
2023/03/20 01:14:28;;;;;;;27.60;20.70;;;9.40;99.90;;;;;;4902639;29;20519;-73
2023/03/20 01:16:53;;;;;;;29.13;19.67;;;9.40;99.90;;;;;;4903259;29;20498;-72
2023/03/20 01:19:19;;;;;;;28.13;19.60;;;9.40;99.90;;;;;;4902453;29;20209;-72
2023/03/20 01:21:45;;;;;;;25.20;19.03;;;9.40;99.90;;;;;;4902437;29;20487;-72
2023/03/20 01:24:10;;;;;;;30.07;21.87;;;9.40;99.90;;;;;;4901935;29;20191;-71
2023/03/20 01:26:42;;;;;;;27.50;20.53;;;9.40;99.90;;;;;;4903377;29;20222;-72
2023/03/20 01:29:19;;;;;;;26.07;19.70;;;9.40;99.90;;;;;;4901498;29;20483;-71
2023/03/20 01:31:45;;;;;;;29.03;20.87;;;9.40;99.90;;;;;;4901584;29;20859;-72
2023/03/20 01:34:11;;;;;;;27.40;20.17;;;9.30;99.90;;;;;;4900770;29;20422;-72
2023/03/20 01:36:37;;;;;;;28.60;19.53;;;9.30;99.90;;;;;;4903536;29;20416;-72
2023/03/20 01:39:04;;;;;;;27.60;18.37;;;9.20;99.90;;;;;;4902709;29;20419;-73
2023/03/20 01:41:31;;;;;;;27.30;19.90;;;9.20;99.90;;;;;;4901744;29;20871;-73
2023/03/20 01:44:00;;;;;;;22.73;16.37;;;9.20;99.90;;;;;;4900665;29;20506;-71
2023/03/20 01:46:28;;;;;;;21.70;15.73;;;9.20;99.90;;;;;;4902555;29;20463;-73
2023/03/20 01:49:17;;;;;;;23.13;18.63;;;9.20;99.90;;;;;;4901327;29;20428;-71
2023/03/20 01:51:43;;;;;;;24.23;17.50;;;9.20;99.90;;;;;;4901113;29;20433;-72
2023/03/20 01:54:33;;;;;;;22.30;16.83;;;9.10;99.90;;;;;;4900829;29;20711;-73
2023/03/20 01:57:09;;;;;;;20.37;15.03;;;9.10;99.90;;;;;;4901112;29;20427;-72
2023/03/20 01:59:48;;;;;;;21.60;16.50;;;9.10;99.90;;;;;;4913347;29;20932;-71
2023/03/20 02:02:20;;;;;;;19.83;15.30;;;9.10;99.90;;;;;;4912767;29;20414;-72
2023/03/20 02:04:49;;;;;;;18.37;13.17;;;9.10;99.90;;;;;;4900954;29;20439;-72
2023/03/20 02:07:18;;;;;;;20.53;14.97;;;9.10;99.90;;;;;;4901263;29;20492;-70
2023/03/20 02:09:58;;;;;;;20.17;15.33;;;9.00;99.90;;;;;;4900592;29;20449;-73
2023/03/20 02:12:47;;;;;;;20.70;15.77;;;9.10;99.90;;;;;;4904665;29;20484;-73
2023/03/20 02:15:19;;;;;;;24.00;17.53;;;9.00;99.90;;;;;;4900746;29;20712;-70
2023/03/20 02:18:17;;;;;;;20.23;15.33;;;9.00;99.90;;;;;;4905257;29;20446;-73
2023/03/20 02:20:55;;;;;;;25.33;15.60;;;9.00;99.90;;;;;;4900620;29;20454;-73
2023/03/20 02:23:32;;;;;;;23.20;17.30;;;8.90;99.90;;;;;;4901077;29;20463;-72
2023/03/20 02:26:23;;;;;;;19.93;14.60;;;8.90;99.90;;;;;;4900571;29;20490;-72
2023/03/20 02:29:11;;;;;;;24.53;17.20;;;9.00;99.90;;;;;;4902610;29;20419;-72
2023/03/20 02:32:16;;;;;;;23.23;16.53;;;9.00;99.90;;;;;;4900640;29;20419;-74
2023/03/20 02:35:18;;;;;;;20.63;15.57;;;9.00;99.90;;;;;;4899833;29;20446;-72
2023/03/20 02:38:10;;;;;;;19.50;14.80;;;9.00;99.90;;;;;;4870929;29;20677;-72
2023/03/20 02:40:58;;;;;;;17.73;12.97;;;9.00;99.90;;;;;;4900349;29;20903;-73
2023/03/20 02:43:43;;;;;;;25.53;18.17;;;8.90;99.90;;;;;;4900293;29;20502;-72
2023/03/20 02:46:24;;;;;;;18.93;15.20;;;8.90;99.90;;;;;;4882033;29;20460;-71
2023/03/20 02:49:13;;;;;;;22.80;14.93;;;8.90;99.90;;;;;;4900133;29;20463;-73
2023/03/20 02:52:03;;;;;;;19.50;14.80;;;8.80;99.90;;;;;;4901680;29;20558;-72
2023/03/20 02:54:38;;;;;;;20.67;15.40;;;8.80;99.90;;;;;;4901689;29;20561;-73
2023/03/20 02:57:10;;;;;;;23.13;15.67;;;8.70;99.90;;;;;;4901110;29;20415;-72
2023/03/20 02:59:45;;;;;;;19.93;14.63;;;8.60;99.90;;;;;;4901889;29;20462;-72
2023/03/20 03:02:20;;;;;;;18.50;13.30;;;8.50;99.90;;;;;;4903400;29;20578;-72
2023/03/20 03:04:55;;;;;;;21.20;14.40;;;8.40;99.90;;;;;;4901093;29;21526;-71
2023/03/20 03:07:27;;;;;;;19.37;14.27;;;8.30;99.90;;;;;;4901051;29;20505;-73
2023/03/20 03:10:12;;;;;;;20.20;13.90;;;8.30;99.90;;;;;;4904528;29;20914;-73
2023/03/20 03:12:42;;;;;;;17.33;12.20;;;8.20;99.90;;;;;;4907642;29;20431;-71
2023/03/20 03:15:32;;;;;;;18.10;12.93;;;8.30;99.90;;;;;;4899060;29;20415;-73
2023/03/20 03:18:00;;;;;;;16.93;11.60;;;8.40;99.90;;;;;;4899764;29;20423;-72
2023/03/20 03:20:34;;;;;;;16.00;11.77;;;8.40;99.90;;;;;;4899719;29;20439;-72
2023/03/20 03:23:00;;;;;;;16.90;12.60;;;8.50;99.90;;;;;;4900025;29;20416;-72
2023/03/20 03:25:34;;;;;;;17.83;13.50;;;8.60;99.90;;;;;;4899229;29;20415;-73
2023/03/20 03:28:21;;;;;;;17.27;12.70;;;8.60;99.90;;;;;;4899143;29;20424;-72
2023/03/20 03:30:50;;;;;;;18.87;13.17;;;8.60;99.90;;;;;;4899571;29;20572;-71
2023/03/20 03:33:20;;;;;;;19.80;13.90;;;8.70;99.90;;;;;;4900938;29;20439;-71
2023/03/20 03:35:49;;;;;;;20.00;14.07;;;8.70;99.90;;;;;;4899536;29;20427;-72
2023/03/20 03:38:43;;;;;;;20.80;14.87;;;8.70;99.90;;;;;;4899493;29;20731;-73
2023/03/20 03:41:21;;;;;;;16.67;11.90;;;8.70;99.90;;;;;;4900690;29;20498;-72
2023/03/20 03:44:17;;;;;;;21.47;14.63;;;8.60;99.90;;;;;;4898882;29;20419;-72
2023/03/20 03:47:09;;;;;;;16.93;12.20;;;8.50;99.90;;;;;;4901438;29;20471;-73
2023/03/20 03:49:40;;;;;;;15.07;10.90;;;8.40;99.90;;;;;;4903234;29;20728;-73
2023/03/20 03:52:10;;;;;;;15.37;10.93;;;8.30;99.90;;;;;;4903665;29;20485;-72
2023/03/20 03:54:43;;;;;;;16.93;11.20;;;8.30;99.90;;;;;;4903483;29;20449;-71
2023/03/20 03:57:44;;;;;;;16.30;11.63;;;8.30;99.90;;;;;;4904439;29;20522;-72
2023/03/20 04:00:18;;;;;;;14.30;10.67;;;8.30;99.90;;;;;;4902894;29;20430;-72
2023/03/20 04:02:48;;;;;;;17.30;12.47;;;8.40;99.90;;;;;;4903387;29;20428;-72
2023/03/20 04:05:15;;;;;;;16.93;12.40;;;8.40;99.90;;;;;;4904185;29;20407;-73
2023/03/20 04:07:45;;;;;;;19.57;13.37;;;8.40;99.90;;;;;;4903428;29;20458;-72
2023/03/20 04:10:11;;;;;;;18.30;12.60;;;8.50;99.90;;;;;;4902628;29;20777;-72
2023/03/20 04:12:41;;;;;;;20.90;14.23;;;8.50;99.90;;;;;;4903513;29;20781;-73
2023/03/20 04:15:12;;;;;;;16.50;11.90;;;8.50;99.90;;;;;;4902370;29;20415;-73
2023/03/20 04:17:37;;;;;;;20.27;12.70;;;8.50;99.90;;;;;;4903227;29;20499;-72
2023/03/20 04:20:04;;;;;;;22.73;14.83;;;8.60;99.90;;;;;;4902715;29;20574;-73
2023/03/20 04:22:30;;;;;;;20.33;13.90;;;8.60;99.90;;;;;;4902902;29;20195;-71
2023/03/20 04:25:05;;;;;;;22.03;14.67;;;8.50;99.90;;;;;;4902835;29;20423;-71
2023/03/20 04:27:30;;;;;;;19.53;13.53;;;8.50;99.90;;;;;;4902079;29;20946;-72
2023/03/20 04:29:56;;;;;;;18.50;12.87;;;8.50;99.90;;;;;;4901781;29;20462;-73
2023/03/20 04:32:40;;;;;;;17.77;12.87;;;8.40;99.90;;;;;;4904190;29;20266;-73
2023/03/20 04:35:16;;;;;;;16.50;11.93;;;8.40;99.90;;;;;;4902590;29;20415;-74
2023/03/20 04:37:56;;;;;;;18.33;11.60;;;8.30;99.90;;;;;;4903098;29;20897;-71
2023/03/20 04:40:22;;;;;;;17.27;13.83;;;8.30;99.90;;;;;;4902091;29;20435;-73
2023/03/20 04:42:47;;;;;;;20.07;13.30;;;8.20;99.90;;;;;;4887660;29;20183;-72
2023/03/20 04:45:13;;;;;;;20.60;12.40;;;8.10;99.90;;;;;;4902453;29;20198;-71
2023/03/20 04:47:39;;;;;;;19.87;11.73;;;8.10;99.90;;;;;;4902787;29;20222;-71
2023/03/20 04:50:06;;;;;;;16.17;10.57;;;8.00;99.90;;;;;;4902193;29;20214;-72
2023/03/20 04:52:31;;;;;;;13.17;9.10;;;7.90;99.90;;;;;;4904077;29;20491;-72
2023/03/20 04:54:57;;;;;;;13.00;8.40;;;7.80;99.90;;;;;;4904198;29;20738;-71
2023/03/20 04:57:23;;;;;;;17.10;10.90;;;7.90;99.90;;;;;;4904118;29;20187;-72
2023/03/20 04:59:49;;;;;;;15.40;10.83;;;7.80;99.90;;;;;;4901788;29;20443;-73
2023/03/20 05:02:16;;;;;;;12.10;8.50;;;7.80;99.90;;;;;;4891133;29;20452;-72
2023/03/20 05:04:42;;;;;;;15.33;9.80;;;7.80;99.90;;;;;;4908664;29;20415;-73
2023/03/20 05:07:09;;;;;;;17.97;11.13;;;7.70;99.90;;;;;;4906120;29;20528;-72
2023/03/20 05:09:46;;;;;;;13.43;9.57;;;7.70;99.90;;;;;;4905695;29;20735;-71
2023/03/20 05:12:13;;;;;;;12.80;9.00;;;7.70;99.90;;;;;;4907183;29;20507;-72
2023/03/20 05:14:44;;;;;;;15.53;11.80;;;7.70;99.90;;;;;;4907086;29;20415;-72
2023/03/20 05:17:29;;;;;;;13.80;9.70;;;7.70;99.90;;;;;;4888655;29;20465;-73
2023/03/20 05:20:12;;;;;;;12.30;8.43;;;7.60;99.90;;;;;;4892752;29;20511;-72
2023/03/20 05:22:51;;;;;;;16.10;9.63;;;7.60;99.90;;;;;;4907723;29;20443;-73
2023/03/20 05:25:37;;;;;;;11.13;8.10;;;7.50;99.90;;;;;;4906532;29;20839;-72
2023/03/20 05:28:22;;;;;;;14.00;8.00;;;7.50;99.90;;;;;;4905215;29;20455;-72
2023/03/20 05:30:59;;;;;;;12.37;8.37;;;7.50;99.90;;;;;;4909108;29;20445;-71
2023/03/20 05:33:48;;;;;;;15.00;10.87;;;7.40;99.90;;;;;;4894281;29;20412;-73
2023/03/20 05:36:24;;;;;;;16.43;10.37;;;7.40;99.90;;;;;;4908238;29;20482;-74
2023/03/20 05:38:58;;;;;;;18.50;9.97;;;7.40;99.90;;;;;;4891260;29;20452;-74
2023/03/20 05:41:37;;;;;;;13.43;8.07;;;7.40;99.90;;;;;;4908898;29;20426;-74
2023/03/20 05:44:26;;;;;;;16.93;12.40;;;7.40;99.90;;;;;;4894782;29;20431;-72
2023/03/20 05:47:20;;;;;;;14.43;10.40;;;7.40;99.90;;;;;;4909560;29;20466;-72
2023/03/20 05:50:12;;;;;;;18.43;11.83;;;7.40;99.90;;;;;;4898067;29;20941;-73
2023/03/20 05:53:16;;;;;;;16.30;8.93;;;7.40;99.90;;;;;;4911395;29;20442;-75
2023/03/20 05:55:53;;;;;;;14.10;8.13;;;7.40;99.90;;;;;;4913296;29;20798;-75
2023/03/20 05:58:37;;;;;;;15.60;9.73;;;7.40;99.90;;;;;;4914830;29;20390;-72
2023/03/20 06:01:26;;;;;;;13.10;8.80;;;7.50;99.90;;;;;;4890718;29;20446;-73
2023/03/20 06:04:07;;;;;;;14.03;9.70;;;7.50;99.90;;;;;;4908359;29;20471;-73
2023/03/20 06:07:03;;;;;;;15.43;8.47;;;7.50;99.90;;;;;;4897779;29;20922;-72
2023/03/20 06:09:31;;;;;;;15.53;10.33;;;7.50;99.90;;;;;;4910536;29;20479;-72
2023/03/20 06:11:57;;;;;;;14.27;10.30;;;7.50;99.90;;;;;;4909803;29;20541;-72
2023/03/20 06:14:23;;;;;;;20.17;11.77;;;7.60;99.90;;;;;;4895536;29;20467;-73
2023/03/20 06:16:57;;;;;;;18.97;12.30;;;7.70;99.90;;;;;;4911838;29;20195;-73
2023/03/20 06:19:24;;;;;;;19.13;12.13;;;7.70;99.90;;;;;;4895956;29;20451;-73
2023/03/20 06:21:50;;;;;;;19.20;11.20;;;7.70;99.90;;;;;;4909841;29;20535;-75
2023/03/20 06:24:19;;;;;;;17.80;12.30;;;7.70;99.90;;;;;;4912602;29;20238;-74
2023/03/20 06:26:46;;;;;;;14.37;10.03;;;7.80;99.90;;;;;;4894769;29;20458;-73
2023/03/20 06:29:13;;;;;;;16.30;11.50;;;7.90;99.90;;;;;;4908989;29;20738;-74
2023/03/20 06:31:39;;;;;;;18.00;12.03;;;7.90;99.90;;;;;;4910103;29;20451;-73
2023/03/20 06:34:07;;;;;;;17.17;10.97;;;8.00;99.90;;;;;;4895464;29;20545;-75
2023/03/20 06:36:40;;;;;;;19.70;13.50;;;8.10;99.90;;;;;;4912432;29;20430;-74
2023/03/20 06:39:14;;;;;;;16.27;11.50;;;8.10;99.90;;;;;;4912357;29;20462;-72
2023/03/20 06:41:39;;;;;;;21.90;15.10;;;8.20;99.90;;;;;;4899848;29;20441;-72
2023/03/20 06:44:08;;;;;;;16.33;11.40;;;8.30;99.90;;;;;;4901740;29;20427;-73
2023/03/20 06:46:55;;;;;;;19.63;13.00;;;8.40;99.90;;;;;;4918760;29;20526;-75
2023/03/20 06:49:33;;;;;;;22.10;12.80;;;8.50;99.90;;;;;;4909946;29;20676;-75
2023/03/20 06:51:59;;;;;;;17.33;12.53;;;8.60;99.90;;;;;;4911671;29;20503;-74
2023/03/20 06:54:25;;;;;;;16.37;11.30;;;8.60;99.90;;;;;;4912485;29;20408;-74
2023/03/20 06:56:54;;;;;;;20.57;14.60;;;8.60;99.90;;;;;;4909587;29;20195;-75
2023/03/20 06:59:20;;;;;;;17.77;12.20;;;8.60;99.90;;;;;;4908104;29;20435;-74
2023/03/20 07:01:46;;;;;;;19.67;14.50;;;8.60;99.90;;;;;;4909805;29;20400;-74
2023/03/20 07:04:12;;;;;;;12.47;8.77;;;8.60;99.90;;;;;;4910566;29;20213;-74
2023/03/20 07:06:45;;;;;;;11.97;8.57;;;8.70;99.90;;;;;;4908842;29;20203;-75
2023/03/20 07:09:11;;;;;;;13.33;8.70;;;8.80;99.90;;;;;;4909690;29;20412;-74
2023/03/20 07:11:37;;;;;;;19.40;12.30;;;8.90;99.90;;;;;;4894942;29;20462;-75
2023/03/20 07:14:02;;;;;;;21.13;13.60;;;9.00;99.90;;;;;;4910227;29;20195;-75
2023/03/20 07:16:45;;;;;;;15.93;11.60;;;9.10;99.90;;;;;;4908048;29;20259;-75
2023/03/20 07:19:12;;;;;;;18.60;12.73;;;9.20;99.90;;;;;;4910645;29;20407;-74
2023/03/20 07:21:41;;;;;;;25.10;14.63;;;9.30;99.90;;;;;;4908020;29;20610;-74
2023/03/20 07:24:07;;;;;;;18.67;12.97;;;9.40;99.90;;;;;;4908961;29;20419;-75
2023/03/20 07:26:32;;;;;;;14.10;10.30;;;9.50;99.90;;;;;;4910645;29;20474;-74
2023/03/20 07:28:59;;;;;;;19.00;12.57;;;9.50;99.90;;;;;;4918385;29;20406;-73
2023/03/20 07:31:28;;;;;;;15.73;9.97;;;9.60;99.90;;;;;;4912949;29;20448;-75
2023/03/20 07:34:09;;;;;;;17.53;9.93;;;9.70;99.90;;;;;;4897419;29;20426;-76
2023/03/20 07:36:35;;;;;;;9.43;7.33;;;9.80;99.90;;;;;;4892968;29;20428;-75
2023/03/20 07:39:01;;;;;;;19.67;12.57;;;9.90;99.90;;;;;;4911071;29;20457;-75
2023/03/20 07:41:29;;;;;;;15.50;10.67;;;9.90;99.90;;;;;;4909990;29;20183;-73
2023/03/20 07:44:01;;;;;;;14.33;10.80;;;9.90;99.90;;;;;;4898355;29;20431;-72
2023/03/20 07:46:47;;;;;;;15.10;11.53;;;9.90;99.90;;;;;;4909717;29;20492;-75
2023/03/20 07:49:17;;;;;;;13.03;9.10;;;10.00;99.50;;;;;;4909938;29;21033;-74
2023/03/20 07:51:46;;;;;;;11.10;7.70;;;9.90;99.90;;;;;;4907342;29;20443;-75
2023/03/20 07:54:14;;;;;;;11.60;8.23;;;10.00;99.70;;;;;;4909421;29;20488;-74
2023/03/20 07:56:40;;;;;;;11.33;8.97;;;10.00;99.40;;;;;;4897746;29;20872;-75
2023/03/20 07:59:07;;;;;;;14.00;8.67;;;10.00;98.80;;;;;;4899122;29;20423;-76
2023/03/20 08:01:35;;;;;;;15.50;11.43;;;10.10;98.90;;;;;;4900931;29;20416;-75
2023/03/20 08:04:01;;;;;;;14.13;10.33;;;10.00;97.10;;;;;;4911179;29;20297;-75
2023/03/20 08:06:27;;;;;;;15.20;9.63;;;10.00;96.80;;;;;;4910406;29;20954;-75
2023/03/20 08:08:52;;;;;;;15.73;10.57;;;10.00;96.20;;;;;;4912359;29;20180;-75
2023/03/20 08:11:19;;;;;;;14.80;10.03;;;10.00;95.80;;;;;;4913757;29;20282;-76
2023/03/20 08:13:46;;;;;;;12.47;8.33;;;10.00;95.40;;;;;;4912690;29;20254;-74
2023/03/20 08:16:12;;;;;;;11.83;7.80;;;10.00;95.40;;;;;;4895279;29;20418;-77
2023/03/20 08:18:38;;;;;;;9.73;6.23;;;10.10;95.40;;;;;;4881266;29;20423;-76
2023/03/20 08:21:03;;;;;;;11.50;8.73;;;10.20;95.60;;;;;;4910905;29;20227;-75
2023/03/20 08:23:29;;;;;;;10.47;8.00;;;10.20;93.40;;;;;;4912391;29;20197;-75
2023/03/20 08:25:55;;;;;;;11.20;8.27;;;10.20;94.70;;;;;;4908263;29;20211;-77
2023/03/20 08:28:21;;;;;;;16.00;7.73;;;10.40;94.30;;;;;;4909460;29;20241;-75
2023/03/20 08:30:47;;;;;;;15.10;9.37;;;10.60;93.50;;;;;;4913080;29;20199;-76
2023/03/20 08:33:15;;;;;;;16.30;8.30;;;10.50;90.90;;;;;;4915102;29;20479;-73
2023/03/20 08:35:42;;;;;;;11.23;7.70;;;10.40;91.30;;;;;;4915973;29;20419;-73
2023/03/20 08:38:12;;;;;;;17.13;6.90;;;10.60;91.70;;;;;;4916409;29;20419;-75
2023/03/20 08:40:41;;;;;;;10.20;6.60;;;10.80;90.60;;;;;;4915965;29;20455;-75
2023/03/20 08:43:07;;;;;;;6.97;5.20;;;10.90;90.80;;;;;;4914449;29;20423;-74
2023/03/20 08:45:33;;;;;;;12.10;7.30;;;11.00;90.70;;;;;;4915903;29;20431;-74
2023/03/20 08:47:58;;;;;;;11.17;5.93;;;11.30;87.50;;;;;;4915402;29;20187;-76
2023/03/20 08:50:26;;;;;;;10.30;6.90;;;11.40;86.10;;;;;;4899866;29;20305;-76
2023/03/20 08:52:52;;;;;;;7.47;5.80;;;11.30;82.30;;;;;;4904890;29;20203;-76
2023/03/20 08:55:18;;;;;;;7.90;5.70;;;11.40;84.30;;;;;;4900645;29;20428;-74
2023/03/20 08:57:46;;;;;;;11.40;6.70;;;11.50;83.30;;;;;;4913862;29;20462;-73
2023/03/20 09:00:14;;;;;;;8.10;6.03;;;11.60;78.90;;;;;;4914036;29;20460;-76
2023/03/20 09:02:41;;;;;;;11.43;7.40;;;11.60;80.70;;;;;;4900211;29;20453;-74
2023/03/20 09:05:08;;;;;;;9.87;8.10;;;11.60;77.60;;;;;;4901082;29;20431;-75
2023/03/20 09:07:36;;;;;;;8.07;6.60;;;11.60;76.30;;;;;;4916387;29;20478;-76
2023/03/20 09:10:05;;;;;;;8.43;5.60;;;11.70;78.10;;;;;;4902699;29;20444;-76
2023/03/20 09:12:31;;;;;;;12.23;7.43;;;11.70;76.90;;;;;;4917923;29;20484;-76
2023/03/20 09:14:57;;;;;;;7.87;6.57;;;11.70;73.70;;;;;;4904521;29;20471;-75
2023/03/20 09:17:23;;;;;;;9.77;6.30;;;11.80;74.50;;;;;;4905398;29;20426;-76
2023/03/20 09:19:50;;;;;;;12.13;8.50;;;11.80;73.60;;;;;;4921369;29;20428;-76
2023/03/20 09:22:19;;;;;;;10.83;7.70;;;11.80;69.60;;;;;;4903791;29;20519;-74
2023/03/20 09:24:45;;;;;;;11.60;8.53;;;11.70;71.30;;;;;;4917212;29;20434;-76
2023/03/20 09:27:14;;;;;;;8.23;6.93;;;11.90;68.10;;;;;;4916346;29;20457;-75
2023/03/20 09:29:40;;;;;;;14.47;9.43;;;12.00;69.80;;;;;;4899220;29;20436;-76
2023/03/20 09:32:08;;;;;;;12.30;8.13;;;12.00;67.90;;;;;;4899542;29;20435;-75
2023/03/20 09:34:33;;;;;;;9.83;7.23;;;12.00;66.50;;;;;;4916520;29;20711;-75
2023/03/20 09:37:02;;;;;;;9.60;7.00;;;12.00;67.50;;;;;;4918454;29;20415;-75
2023/03/20 09:39:34;;;;;;;9.63;7.80;;;12.20;66.20;;;;;;4916093;29;20200;-76
2023/03/20 09:42:29;;;;;;;10.40;7.63;;;12.40;62.30;;;;;;4899214;29;20840;-75
2023/03/20 09:45:16;;;;;;;10.50;7.10;;;12.20;63.80;;;;;;4888413;29;20423;-76
2023/03/20 09:48:09;;;;;;;7.20;6.50;;;12.20;64.70;;;;;;4885570;29;20468;-76
2023/03/20 09:51:00;;;;;;;9.50;6.50;;;12.50;62.90;;;;;;4886538;29;20439;-75
2023/03/20 09:53:42;;;;;;;9.33;7.37;;;12.60;62.30;;;;;;4916734;29;20424;-74
2023/03/20 09:56:16;;;;;;;12.07;6.67;;;12.70;62.20;;;;;;4914391;29;20441;-77
2023/03/20 09:58:48;;;;;;;11.03;6.63;;;12.70;59.80;;;;;;4914569;29;20439;-74
2023/03/20 10:01:15;;;;;;;9.53;6.93;;;12.70;58.00;;;;;;4915101;29;20771;-76
2023/03/20 10:03:49;;;;;;;10.77;7.30;;;12.20;59.30;;;;;;4868877;29;20437;-76
2023/03/20 10:06:18;;;;;;;11.57;6.70;;;12.10;60.60;;;;;;4899147;29;20451;-76
2023/03/20 10:08:45;;;;;;;11.70;5.70;;;12.10;62.10;;;;;;4900842;29;20491;-76
2023/03/20 10:11:30;;;;;;;12.53;7.40;;;12.50;61.10;;;;;;4900109;29;20471;-76
2023/03/20 10:14:15;;;;;;;11.00;6.43;;;12.60;58.50;;;;;;4898163;29;20429;-77
2023/03/20 10:16:47;;;;;;;10.47;6.03;;;12.50;57.30;;;;;;4914099;29;20426;-77
2023/03/20 10:19:39;;;;;;;9.90;6.60;;;12.50;58.30;;;;;;4913549;29;20424;-76
2023/03/20 10:22:24;;;;;;;9.27;5.93;;;12.50;57.50;;;;;;4913934;29;20537;-78
2023/03/20 10:25:23;;;;;;;6.70;4.83;;;12.50;57.80;;;;;;4899644;29;20427;-75
2023/03/20 10:28:22;;;;;;;8.77;4.63;;;12.70;57.60;;;;;;4913147;29;20486;-77
2023/03/20 10:31:17;;;;;;;11.63;5.13;;;12.80;53.80;;;;;;4899319;29;20442;-76
2023/03/20 10:34:02;;;;;;;5.53;3.57;;;12.60;53.10;;;;;;4901488;29;20415;-76
2023/03/20 10:36:44;;;;;;;5.13;3.73;;;12.30;53.90;;;;;;4899292;29;20419;-76
2023/03/20 10:39:40;;;;;;;5.87;3.80;;;12.50;53.20;;;;;;4897513;29;20426;-76
2023/03/20 10:42:18;;;;;;;7.30;3.43;;;12.50;52.00;;;;;;4883015;29;20465;-76
2023/03/20 10:45:11;;;;;;;4.13;3.07;;;12.30;52.80;;;;;;4927905;29;20426;-77
2023/03/20 10:48:06;;;;;;;9.97;3.50;;;12.40;51.90;;;;;;4937687;29;20426;-78
2023/03/20 10:50:44;;;;;;;10.63;3.57;;;12.30;50.40;;;;;;4906001;29;20442;-73
2023/03/20 10:53:23;;;;;;;4.80;3.40;;;12.30;50.50;;;;;;4920578;29;20421;-77
2023/03/20 10:55:54;;;;;;;6.23;3.00;;;12.00;51.30;;;;;;4920395;29;20422;-76
2023/03/20 10:58:33;;;;;;;6.00;2.90;;;11.90;51.50;;;;;;4909802;29;20418;-76
2023/03/20 11:01:03;;;;;;;4.10;2.20;;;12.10;52.40;;;;;;4930425;29;20439;-77
2023/03/20 11:03:31;;;;;;;7.10;4.47;;;12.30;52.10;;;;;;4902345;29;20447;-76
2023/03/20 11:06:05;;;;;;;7.43;3.13;;;12.40;51.90;;;;;;4902785;29;20491;-77
2023/03/20 11:08:38;;;;;;;6.57;3.53;;;12.60;51.30;;;;;;4916722;29;20419;-76
2023/03/20 11:11:05;;;;;;;12.10;4.47;;;12.50;51.10;;;;;;4919245;29;20895;-75
2023/03/20 11:13:43;;;;;;;13.10;4.73;;;12.40;50.80;;;;;;4902891;29;20423;-78
2023/03/20 11:16:32;;;;;;;11.90;3.97;;;12.40;51.30;;;;;;4904117;29;20507;-78
2023/03/20 11:19:07;;;;;;;7.70;3.87;;;12.50;51.50;;;;;;4919040;29;20419;-76
2023/03/20 11:21:45;;;;;;;8.27;3.60;;;12.70;50.90;;;;;;5014917;23;20467;-78
2023/03/20 11:24:32;;;;;;;11.13;4.10;;;12.60;51.30;;;;;;4904053;29;20490;-77
2023/03/20 11:27:07;;;;;;;5.73;3.93;;;12.60;51.20;;;;;;4919840;29;20541;-78
2023/03/20 11:29:35;;;;;;;6.57;3.90;;;12.70;51.00;;;;;;4927553;29;20498;-76
2023/03/20 11:32:38;;;;;;;7.53;4.90;;;12.80;51.70;;;;;;4937964;29;20407;-78
2023/03/20 11:35:21;;;;;;;6.70;3.77;;;12.90;51.10;;;;;;4923092;29;20401;-78
2023/03/20 11:37:51;;;;;;;9.70;3.80;;;12.70;51.30;;;;;;4938440;29;20406;-77
2023/03/20 11:40:39;;;;;;;9.70;3.93;;;12.90;51.60;;;;;;4904262;29;20518;-77
2023/03/20 11:43:11;;;;;;;4.83;2.63;;;12.80;51.60;;;;;;4915974;29;20445;-78
2023/03/20 11:45:43;;;;;;;6.87;3.57;;;12.80;51.80;;;;;;4917307;29;20465;-76
2023/03/20 11:48:22;;;;;;;5.10;3.00;;;12.80;51.50;;;;;;4932764;29;20414;-77
2023/03/20 11:51:23;;;;;;;6.53;2.97;;;12.80;51.50;;;;;;4917509;29;20494;-78
2023/03/20 11:54:23;;;;;;;9.27;3.90;;;12.60;51.60;;;;;;5421231;23;21463;-77
2023/03/20 11:57:04;;;;;;;7.33;3.80;;;12.50;52.60;;;;;;4919108;29;20412;-76
2023/03/20 11:59:40;;;;;;;8.77;3.20;;;12.50;52.60;;;;;;4945747;29;20754;-75
2023/03/20 12:02:22;;;;;;;9.60;4.50;;;12.50;53.20;;;;;;4938089;29;20410;-76
2023/03/20 12:04:48;;;;;;;13.23;5.17;;;12.70;52.40;;;;;;4935829;29;20504;-76
2023/03/20 12:07:26;;;;;;;6.00;3.20;;;12.70;52.30;;;;;;4934414;29;20748;-77
2023/03/20 12:10:09;;;;;;;6.33;3.23;;;12.60;52.70;;;;;;4937304;29;20449;-75
2023/03/20 12:12:50;;;;;;;4.93;2.40;;;12.60;53.20;;;;;;4916199;29;20434;-76
2023/03/20 12:15:48;;;;;;;4.13;3.00;;;12.70;52.40;;;;;;4918294;29;20917;-77
2023/03/20 12:18:49;;;;;;;7.20;3.50;;;12.90;51.50;;;;;;4941144;29;20440;-77
2023/03/20 12:21:29;;;;;;;10.50;4.20;;;12.70;52.00;;;;;;4925683;29;20447;-77
2023/03/20 12:24:08;;;;;;;7.67;4.20;;;12.60;52.20;;;;;;4915246;29;20497;-77
2023/03/20 12:26:49;;;;;;;5.30;3.70;;;12.40;53.20;;;;;;4954602;29;20466;-75
2023/03/20 12:33:14;;;;;;;8.00;4.83;;;12.30;54.20;;;;;;4944268;29;20413;-77
2023/03/20 12:35:50;;;;;;;7.57;3.70;;;12.50;54.20;;;;;;4944357;29;20641;-78
2023/03/20 12:38:33;;;;;;;7.73;3.20;;;12.20;53.90;;;;;;4901315;29;20441;-78
2023/03/20 12:41:38;;;;;;;8.20;3.60;;;12.30;54.70;;;;;;4905279;29;20470;-77
2023/03/20 12:44:45;;;;;;;5.23;2.93;;;12.20;55.10;;;;;;4889746;29;20426;-76
2023/03/20 12:47:58;;;;;;;5.63;3.43;;;12.30;55.00;;;;;;4922688;29;20471;-76
2023/03/20 12:50:40;;;;;;;9.70;4.20;;;12.10;56.20;;;;;;4895727;29;20443;-77
2023/03/20 12:53:29;;;;;;;4.87;2.90;;;12.20;57.00;;;;;;4883905;29;20426;-76
2023/03/20 12:56:18;;;;;;;6.50;4.10;;;12.50;56.10;;;;;;4900332;29;20468;-78
2023/03/20 12:59:05;;;;;;;4.67;3.10;;;12.70;54.70;;;;;;4882321;29;20451;-75
2023/03/20 13:01:46;;;;;;;6.57;3.00;;;12.60;54.60;;;;;;4886187;29;20426;-77
2023/03/20 13:04:34;;;;;;;11.60;3.30;;;12.60;55.30;;;;;;4877540;29;20472;-77
2023/03/20 13:07:13;;;;;;;6.80;2.67;;;12.50;55.70;;;;;;4870996;29;20474;-79
2023/03/20 13:10:16;;;;;;;5.27;2.60;;;12.60;56.70;;;;;;4902440;29;20422;-77
2023/03/20 13:12:53;;;;;;;5.80;2.30;;;12.90;56.30;;;;;;4898717;29;20419;-76
2023/03/20 13:15:44;;;;;;;6.33;2.30;;;13.00;55.60;;;;;;4901143;29;20388;-76
2023/03/20 13:18:47;;;;;;;6.90;2.90;;;13.20;55.20;;;;;;4884788;29;20412;-76
2023/03/20 13:21:43;;;;;;;5.90;2.30;;;13.00;54.50;;;;;;5191167;23;20567;-77
2023/03/20 13:24:33;;;;;;;5.70;1.70;;;13.00;55.00;;;;;;5625162;23;20451;-77
2023/03/20 13:27:39;;;;;;;2.90;1.60;;;13.20;55.10;;;;;;4884179;29;20476;-78